createdAt,value
2018-07-22T00:02:26.108Z,55.67
2018-07-22T00:04:54.754Z,58.57
2018-07-22T00:07:23.119Z,56.50
2018-07-22T00:09:51.546Z,57.70
2018-07-22T00:12:20.042Z,55.47
2018-07-22T00:14:48.610Z,54.57
2018-07-22T00:17:17.204Z,59.17
2018-07-22T00:19:45.763Z,56.47
2018-07-22T00:22:14.230Z,60.53
2018-07-22T00:24:42.906Z,58.53
2018-07-22T00:27:11.561Z,62.30
2018-07-22T00:29:39.963Z,59.37
2018-07-22T00:32:09.292Z,58.60
2018-07-22T00:34:37.922Z,56.10
2018-07-22T00:37:06.561Z,60.60
2018-07-22T00:39:35.423Z,59.90
2018-07-22T00:42:03.827Z,59.83
2018-07-22T00:44:32.229Z,58.53
2018-07-22T00:47:01.775Z,58.63
2018-07-22T00:49:30.181Z,62.27
2018-07-22T00:51:59.839Z,61.90
2018-07-22T00:54:29.175Z,61.50
2018-07-22T00:56:57.575Z,61.63
2018-07-22T00:59:26.300Z,66.27
2018-07-22T01:01:55.018Z,63.57
2018-07-22T01:04:23.495Z,65.60
2018-07-22T01:06:52.285Z,66.17
2018-07-22T01:09:20.748Z,68.40
2018-07-22T01:11:49.216Z,71.50
2018-07-22T01:14:17.625Z,67.20
2018-07-22T01:16:46.084Z,66.03
2018-07-22T01:19:14.576Z,65.17
2018-07-22T01:21:43.059Z,65.33
2018-07-22T01:24:11.673Z,62.10
2018-07-22T01:26:40.298Z,61.20
2018-07-22T01:29:09.051Z,63.10
2018-07-22T01:31:37.795Z,57.90
2018-07-22T01:34:06.902Z,58.80
2018-07-22T01:36:35.239Z,53.17
2018-07-22T01:39:05.742Z,49.50
2018-07-22T01:41:34.144Z,50.17
2018-07-22T01:44:02.501Z,53.57
2018-07-22T01:46:30.876Z,51.20
2018-07-22T01:48:59.925Z,47.63
2018-07-22T01:51:28.320Z,50.20
2018-07-22T01:53:56.804Z,52.60
2018-07-22T01:56:25.149Z,49.17
2018-07-22T01:58:53.771Z,50.33
2018-07-22T02:01:21.847Z,54.30
2018-07-22T02:03:50.334Z,53.50
2018-07-22T02:06:18.830Z,51.20
2018-07-22T02:08:47.323Z,51.37
2018-07-22T02:11:15.769Z,50.37
2018-07-22T02:13:44.241Z,47.30
2018-07-22T02:16:13.309Z,46.73
2018-07-22T02:18:41.852Z,48.20
2018-07-22T02:21:10.217Z,45.47
2018-07-22T02:23:39.053Z,43.60
2018-07-22T02:26:07.196Z,44.70
2018-07-22T02:28:35.746Z,45.17
2018-07-22T02:31:04.464Z,45.57
2018-07-22T02:33:33.304Z,43.40
2018-07-22T02:36:01.640Z,45.27
2018-07-22T02:38:30.073Z,44.87
2018-07-22T02:40:58.985Z,44.97
2018-07-22T02:43:27.828Z,44.73
2018-07-22T02:45:56.384Z,45.47
2018-07-22T02:48:25.862Z,43.63
2018-07-22T02:50:54.467Z,42.73
2018-07-22T02:53:23.103Z,44.27
2018-07-22T02:55:51.536Z,46.30
2018-07-22T02:58:20.026Z,43.80
2018-07-22T03:00:48.389Z,47.87
2018-07-22T03:03:17.006Z,43.73
2018-07-22T03:05:45.410Z,44.13
2018-07-22T03:08:13.802Z,44.43
2018-07-22T03:10:42.182Z,50.03
2018-07-22T03:13:10.719Z,45.47
2018-07-22T03:15:39.077Z,47.90
2018-07-22T03:18:07.484Z,49.90
2018-07-22T03:20:35.954Z,53.27
2018-07-22T03:23:04.339Z,48.93
2018-07-22T03:25:32.772Z,50.57
2018-07-22T03:28:01.239Z,52.00
2018-07-22T03:30:29.888Z,50.47
2018-07-22T03:32:59.130Z,51.77
2018-07-22T03:35:28.548Z,50.77
2018-07-22T03:37:56.860Z,54.30
2018-07-22T03:40:25.363Z,51.90
2018-07-22T03:42:53.729Z,53.27
2018-07-22T03:45:22.761Z,51.33
2018-07-22T03:47:51.048Z,51.90
2018-07-22T03:50:19.478Z,52.00
2018-07-22T03:52:47.856Z,50.93
2018-07-22T03:55:16.385Z,51.37
2018-07-22T03:57:44.746Z,51.27
2018-07-22T04:00:13.196Z,50.73
2018-07-22T04:02:41.580Z,52.53
2018-07-22T04:05:10.058Z,53.03
2018-07-22T04:07:38.458Z,52.67
2018-07-22T04:10:06.913Z,53.27
2018-07-22T04:12:35.422Z,52.53
2018-07-22T04:15:03.889Z,49.60
2018-07-22T04:17:32.517Z,52.03
2018-07-22T04:20:01.197Z,47.80
2018-07-22T04:22:29.567Z,46.80
2018-07-22T04:24:58.209Z,45.20
2018-07-22T04:27:27.038Z,44.30
2018-07-22T04:29:55.481Z,44.40
2018-07-22T04:32:24.593Z,43.27
2018-07-22T04:34:53.763Z,43.00
2018-07-22T04:37:22.134Z,40.97
2018-07-22T04:39:51.089Z,41.40
2018-07-22T04:42:19.500Z,40.37
2018-07-22T04:44:48.053Z,39.70
2018-07-22T04:47:16.524Z,38.30
2018-07-22T04:49:44.662Z,37.07
2018-07-22T04:52:12.997Z,37.53
2018-07-22T04:54:41.347Z,36.47
2018-07-22T04:57:09.852Z,34.57
2018-07-22T04:59:38.312Z,35.10
2018-07-22T05:02:06.696Z,34.60
2018-07-22T05:04:36.856Z,33.27
2018-07-22T05:07:05.846Z,31.77
2018-07-22T05:09:34.233Z,31.20
2018-07-22T05:12:02.875Z,30.60
2018-07-22T05:14:31.295Z,32.03
2018-07-22T05:16:59.749Z,29.57
2018-07-22T05:19:28.085Z,28.30
2018-07-22T05:21:56.486Z,28.80
2018-07-22T05:24:24.921Z,27.97
2018-07-22T05:26:53.352Z,27.40
2018-07-22T05:29:21.742Z,24.40
2018-07-22T05:31:50.412Z,25.77
2018-07-22T05:34:18.790Z,27.43
2018-07-22T05:36:47.286Z,26.17
2018-07-22T05:39:15.694Z,25.00
2018-07-22T05:41:44.140Z,24.50
2018-07-22T05:44:12.571Z,24.50
2018-07-22T05:46:41.039Z,23.57
2018-07-22T05:49:09.394Z,23.73
2018-07-22T05:51:37.795Z,24.33
2018-07-22T05:54:06.285Z,23.23
2018-07-22T05:56:34.602Z,23.80
2018-07-22T05:59:03.090Z,22.70
2018-07-22T06:01:31.845Z,20.27
2018-07-22T06:04:00.336Z,22.27
2018-07-22T06:06:28.924Z,22.67
2018-07-22T06:08:57.363Z,21.57
2018-07-22T06:11:25.820Z,23.23
2018-07-22T06:13:54.286Z,22.77
2018-07-22T06:16:23.298Z,21.90
2018-07-22T06:18:51.736Z,23.93
2018-07-22T06:21:21.247Z,22.33
2018-07-22T06:23:49.654Z,22.57
2018-07-22T06:26:19.257Z,23.00
2018-07-22T06:28:48.123Z,23.00
2018-07-22T06:31:16.852Z,23.40
2018-07-22T06:33:45.511Z,23.73
2018-07-22T06:36:13.944Z,26.73
2018-07-22T06:38:42.640Z,25.63
2018-07-22T06:41:11.679Z,27.90
2018-07-22T06:43:40.199Z,23.33
2018-07-22T06:46:09.286Z,23.27
2018-07-22T06:48:37.996Z,24.10
2018-07-22T06:51:08.239Z,23.50
2018-07-22T06:53:36.754Z,23.57
2018-07-22T06:56:05.251Z,22.20
2018-07-22T06:58:33.615Z,22.73
2018-07-22T07:01:02.192Z,22.73
2018-07-22T07:03:30.621Z,21.43
2018-07-22T07:05:59.200Z,22.90
2018-07-22T07:08:28.045Z,22.10
2018-07-22T07:10:56.424Z,21.50
2018-07-22T07:13:24.879Z,22.40
2018-07-22T07:15:53.459Z,20.90
2018-07-22T07:18:21.968Z,22.77
2018-07-22T07:20:50.551Z,21.87
2018-07-22T07:23:18.832Z,21.40
2018-07-22T07:25:47.314Z,22.77
2018-07-22T07:28:15.873Z,21.57
2018-07-22T07:30:44.742Z,22.47
2018-07-22T07:33:13.786Z,24.00
2018-07-22T07:35:42.178Z,22.70
2018-07-22T07:38:11.322Z,23.20
2018-07-22T07:40:39.825Z,22.23
2018-07-22T07:43:08.297Z,22.17
2018-07-22T07:45:37.731Z,21.60
2018-07-22T07:48:07.030Z,20.80
2018-07-22T07:50:35.796Z,20.40
2018-07-22T07:53:04.233Z,20.20
2018-07-22T07:55:32.738Z,20.67
2018-07-22T07:58:01.332Z,18.87
2018-07-22T08:00:30.689Z,17.37
2018-07-22T08:02:59.644Z,18.00
2018-07-22T08:05:29.075Z,16.17
2018-07-22T08:07:57.741Z,18.43
2018-07-22T08:10:26.506Z,17.03
2018-07-22T08:12:55.060Z,17.17
2018-07-22T08:15:23.588Z,16.30
2018-07-22T08:17:52.169Z,16.57
2018-07-22T08:20:20.660Z,15.10
2018-07-22T08:22:49.156Z,15.30
2018-07-22T08:25:17.570Z,15.70
2018-07-22T08:27:47.452Z,15.00
2018-07-22T08:30:16.671Z,14.60
2018-07-22T08:32:45.591Z,13.70
2018-07-22T08:35:14.561Z,13.37
2018-07-22T08:37:44.989Z,14.20
2018-07-22T08:40:15.003Z,14.33
2018-07-22T08:42:43.680Z,13.30
2018-07-22T08:45:12.349Z,13.70
2018-07-22T08:47:41.581Z,13.93
2018-07-22T08:50:10.264Z,13.13
2018-07-22T08:52:39.314Z,12.90
2018-07-22T08:55:09.268Z,12.30
2018-07-22T08:57:37.916Z,11.90
2018-07-22T09:00:07.258Z,12.37
2018-07-22T09:02:38.058Z,12.33
2018-07-22T09:05:07.638Z,12.73
2018-07-22T09:07:36.619Z,11.83
2018-07-22T09:10:05.269Z,11.23
2018-07-22T09:12:33.703Z,11.63
2018-07-22T09:15:03.853Z,11.23
2018-07-22T09:17:33.623Z,10.57
2018-07-22T09:20:02.583Z,11.07
2018-07-22T09:22:31.585Z,9.70
2018-07-22T09:25:00.449Z,10.73
2018-07-22T09:27:29.850Z,10.13
2018-07-22T09:29:59.662Z,9.97
2018-07-22T09:32:29.003Z,9.73
2018-07-22T09:34:57.773Z,9.30
2018-07-22T09:37:26.748Z,8.47
2018-07-22T09:39:55.148Z,8.93
2018-07-22T09:42:23.918Z,9.37
2018-07-22T09:44:52.700Z,10.20
2018-07-22T09:47:21.918Z,10.00
2018-07-22T09:49:51.309Z,8.83
2018-07-22T09:52:20.496Z,7.60
2018-07-22T09:54:50.122Z,7.50
2018-07-22T09:57:19.472Z,8.70
2018-07-22T09:59:48.292Z,8.67
2018-07-22T10:02:16.733Z,7.50
2018-07-22T10:04:45.892Z,8.83
2018-07-22T10:07:14.747Z,8.00
2018-07-22T10:09:46.432Z,7.33
2018-07-22T10:12:16.711Z,7.87
2018-07-22T10:14:47.314Z,7.23
2018-07-22T10:17:16.470Z,7.53
2018-07-22T10:19:45.145Z,8.20
2018-07-22T10:22:13.604Z,7.10
2018-07-22T10:24:42.220Z,6.37
2018-07-22T10:27:11.150Z,6.63
2018-07-22T10:29:40.163Z,6.00
2018-07-22T10:32:09.900Z,5.27
2018-07-22T10:34:43.169Z,5.80
2018-07-22T10:37:11.946Z,5.20
2018-07-22T10:39:40.821Z,6.80
2018-07-22T10:42:10.868Z,5.10
2018-07-22T10:44:40.179Z,5.07
2018-07-22T10:47:08.519Z,4.83
2018-07-22T10:49:37.208Z,5.17
2018-07-22T10:52:05.909Z,5.23
2018-07-22T10:54:36.219Z,4.90
2018-07-22T10:57:05.972Z,4.87
2018-07-22T10:59:35.429Z,3.93
2018-07-22T11:02:05.579Z,5.03
2018-07-22T11:04:34.076Z,4.20
2018-07-22T11:07:04.172Z,4.73
2018-07-22T11:09:32.547Z,4.40
2018-07-22T11:12:02.690Z,4.37
2018-07-22T11:14:31.637Z,3.90
2018-07-22T11:17:00.529Z,4.20
2018-07-22T11:19:29.680Z,4.20
2018-07-22T11:21:58.563Z,4.20
2018-07-22T11:24:28.784Z,4.67
2018-07-22T11:26:58.537Z,4.80
2018-07-22T11:29:27.143Z,4.77
2018-07-22T11:31:56.021Z,4.30
2018-07-22T11:34:25.440Z,4.27
2018-07-22T11:36:55.368Z,4.57
2018-07-22T11:39:25.058Z,5.00
2018-07-22T11:41:54.017Z,3.53
2018-07-22T11:44:22.621Z,4.83
2018-07-22T11:46:53.522Z,4.47
2018-07-22T11:49:22.397Z,4.78
2018-07-22T11:51:51.274Z,4.30
2018-07-22T11:54:20.527Z,4.47
2018-07-22T11:56:49.244Z,2.83
2018-07-22T11:59:19.295Z,3.87
2018-07-22T12:01:48.695Z,3.90
2018-07-22T12:04:18.364Z,4.45
2018-07-22T12:06:46.794Z,3.47
2018-07-22T12:09:16.327Z,3.12
2018-07-22T12:11:46.222Z,3.25
2018-07-22T12:14:14.956Z,3.12
2018-07-22T12:16:43.919Z,3.58
2018-07-22T12:19:13.350Z,3.33
2018-07-22T12:21:41.902Z,4.15
2018-07-22T12:24:10.350Z,3.17
2018-07-22T12:26:38.875Z,3.58
2018-07-22T12:29:07.555Z,3.53
2018-07-22T12:31:36.482Z,3.50
2018-07-22T12:34:05.470Z,3.10
2018-07-22T12:36:33.951Z,3.00
2018-07-22T12:39:03.185Z,3.97
2018-07-22T12:41:31.814Z,4.20
2018-07-22T12:44:01.154Z,4.20
2018-07-22T12:46:29.727Z,3.63
2018-07-22T12:48:58.675Z,3.77
2018-07-22T12:51:27.230Z,4.28
2018-07-22T12:53:57.163Z,3.77
2018-07-22T12:56:26.306Z,3.90
2018-07-22T12:58:55.443Z,4.17
2018-07-22T13:01:24.126Z,4.57
2018-07-22T13:03:52.649Z,4.10
2018-07-22T13:06:21.117Z,3.93
2018-07-22T13:08:49.851Z,3.97
2018-07-22T13:11:19.340Z,3.90
2018-07-22T13:13:47.706Z,4.43
2018-07-22T13:16:16.510Z,4.37
2018-07-22T13:18:45.068Z,4.63
2018-07-22T13:21:13.540Z,5.57
2018-07-22T13:23:42.176Z,5.60
2018-07-22T13:26:10.799Z,5.73
2018-07-22T13:28:39.404Z,4.87
2018-07-22T13:31:08.276Z,5.07
2018-07-22T13:33:36.982Z,5.87
2018-07-22T13:36:05.582Z,5.00
2018-07-22T13:38:34.253Z,6.53
2018-07-22T13:41:02.932Z,5.57
2018-07-22T13:43:31.490Z,5.53
2018-07-22T13:45:59.981Z,5.70
2018-07-22T13:48:28.474Z,5.60
2018-07-22T13:50:57.025Z,5.10
2018-07-22T13:53:25.434Z,6.40
2018-07-22T13:55:54.022Z,6.03
2018-07-22T13:58:22.478Z,5.80
2018-07-22T14:00:51.189Z,5.57
2018-07-22T14:03:21.094Z,5.13
2018-07-22T14:05:49.612Z,5.80
2018-07-22T14:08:18.321Z,5.60
2018-07-22T14:10:47.144Z,5.67
2018-07-22T14:13:15.677Z,5.57
2018-07-22T14:15:44.513Z,4.83
2018-07-22T14:18:13.524Z,5.47
2018-07-22T14:20:42.768Z,5.83
2018-07-22T14:23:11.911Z,4.83
2018-07-22T14:25:40.539Z,5.23
2018-07-22T14:28:10.280Z,5.20
2018-07-22T14:30:39.721Z,4.87
2018-07-22T14:33:09.604Z,4.70
2018-07-22T14:35:38.452Z,5.00
2018-07-22T14:38:07.122Z,5.37
2018-07-22T14:40:37.271Z,5.17
2018-07-22T14:43:06.858Z,4.90
2018-07-22T14:45:36.197Z,4.90
2018-07-22T14:48:04.770Z,5.83
2018-07-22T14:50:34.281Z,4.47
2018-07-22T14:53:02.608Z,5.80
2018-07-22T14:55:31.328Z,5.40
2018-07-22T14:58:00.875Z,5.50
2018-07-22T15:00:29.359Z,5.07
2018-07-22T15:02:58.452Z,7.37
2018-07-22T15:05:26.850Z,5.77
2018-07-22T15:07:56.261Z,5.30
2018-07-22T15:10:24.865Z,6.47
2018-07-22T15:12:53.273Z,9.00
2018-07-22T15:15:21.729Z,5.97
2018-07-22T15:17:50.852Z,5.70
2018-07-22T15:20:19.277Z,5.53
2018-07-22T15:22:48.270Z,5.67
2018-07-22T15:25:16.986Z,6.17
2018-07-22T15:27:45.650Z,4.70
2018-07-22T15:30:14.564Z,5.90
2018-07-22T15:32:43.197Z,5.40
2018-07-22T15:35:12.804Z,6.00
2018-07-22T15:37:41.212Z,5.30
2018-07-22T15:40:10.575Z,6.03
2018-07-22T15:42:39.087Z,5.70
2018-07-22T15:45:07.510Z,5.30
2018-07-22T15:47:35.950Z,5.50
2018-07-22T15:50:05.875Z,5.13
2018-07-22T15:52:34.692Z,5.40
2018-07-22T15:55:03.562Z,4.50
2018-07-22T15:57:31.997Z,5.07
2018-07-22T16:00:00.396Z,5.13
2018-07-22T16:02:28.823Z,5.20
2018-07-22T16:04:57.443Z,5.07
2018-07-22T16:07:25.896Z,5.37
2018-07-22T16:09:54.528Z,5.20
2018-07-22T16:12:22.975Z,5.50
2018-07-22T16:14:51.696Z,5.07
2018-07-22T16:17:21.174Z,4.60
2018-07-22T16:19:49.537Z,4.50
2018-07-22T16:22:18.201Z,4.17
2018-07-22T16:24:46.839Z,4.23
2018-07-22T16:27:15.261Z,4.90
2018-07-22T16:29:43.776Z,4.93
2018-07-22T16:32:18.769Z,5.07
2018-07-22T16:34:48.782Z,4.40
2018-07-22T16:37:17.380Z,5.10
2018-07-22T16:39:45.976Z,4.87
2018-07-22T16:42:14.588Z,4.77
2018-07-22T16:44:44.082Z,5.17
2018-07-22T16:47:12.523Z,4.80
2018-07-22T16:49:41.281Z,5.53
2018-07-22T16:52:09.674Z,4.67
2018-07-22T16:54:38.292Z,4.90
2018-07-22T16:57:06.860Z,5.40
2018-07-22T16:59:36.143Z,4.27
2018-07-22T17:02:04.660Z,5.03
2018-07-22T17:04:36.752Z,4.70
2018-07-22T17:07:05.142Z,4.70
2018-07-22T17:09:33.938Z,5.10
2018-07-22T17:12:02.356Z,6.30
2018-07-22T17:14:30.739Z,7.80
2018-07-22T17:16:59.395Z,6.97
2018-07-22T17:19:28.403Z,7.50
2018-07-22T17:21:56.853Z,5.20
2018-07-22T17:24:25.802Z,5.73
2018-07-22T17:26:54.277Z,5.20
2018-07-22T17:29:22.862Z,5.13
2018-07-22T17:31:51.567Z,5.30
2018-07-22T17:34:20.077Z,5.17
2018-07-22T17:36:48.701Z,5.57
2018-07-22T17:39:17.802Z,4.87
2018-07-22T17:41:46.455Z,5.50
2018-07-22T17:44:16.017Z,5.57
2018-07-22T17:46:44.471Z,5.47
2018-07-22T17:49:13.699Z,4.87
2018-07-22T17:51:43.403Z,5.07
2018-07-22T17:54:11.908Z,5.70
2018-07-22T17:56:40.770Z,5.57
2018-07-22T17:59:09.279Z,5.77
2018-07-22T18:01:37.630Z,5.60
2018-07-22T18:04:06.950Z,6.47
2018-07-22T18:06:36.885Z,6.07
2018-07-22T18:09:07.791Z,5.73
2018-07-22T18:11:37.432Z,6.37
2018-07-22T18:14:05.948Z,5.90
2018-07-22T18:16:35.025Z,5.57
2018-07-22T18:19:03.327Z,6.97
2018-07-22T18:21:32.572Z,6.20
2018-07-22T18:24:01.559Z,5.93
2018-07-22T18:26:30.548Z,6.60
2018-07-22T18:28:58.973Z,10.07
2018-07-22T18:31:27.787Z,8.13
2018-07-22T18:33:57.911Z,11.37
2018-07-22T18:36:30.500Z,6.73
2018-07-22T18:38:59.952Z,6.40
2018-07-22T18:41:28.805Z,5.77
2018-07-22T18:43:58.029Z,6.43
2018-07-22T18:46:26.681Z,6.10
2018-07-22T18:48:55.251Z,7.00
2018-07-22T18:51:23.832Z,7.57
2018-07-22T18:53:53.910Z,6.97
2018-07-22T18:56:22.690Z,6.07
2018-07-22T18:58:51.236Z,7.00
2018-07-22T19:01:20.126Z,7.10
2018-07-22T19:03:48.917Z,6.60
2018-07-22T19:06:17.768Z,7.67
2018-07-22T19:08:46.941Z,7.00
2018-07-22T19:11:15.548Z,6.70
2018-07-22T19:13:44.386Z,6.10
2018-07-22T19:16:12.896Z,7.93
2018-07-22T19:18:42.769Z,7.37
2018-07-22T19:21:11.723Z,6.63
2018-07-22T19:23:40.450Z,6.70
2018-07-22T19:26:09.764Z,8.13
2018-07-22T19:28:38.563Z,9.37
2018-07-22T19:31:07.232Z,7.97
2018-07-22T19:33:35.823Z,7.70
2018-07-22T19:36:06.157Z,8.60
2018-07-22T19:38:34.735Z,7.60
2018-07-22T19:41:03.350Z,6.93
2018-07-22T19:43:31.936Z,7.70
2018-07-22T19:46:01.120Z,9.10
2018-07-22T19:48:29.717Z,9.50
2018-07-22T19:50:58.404Z,9.50
2018-07-22T19:53:27.032Z,10.13
2018-07-22T19:55:55.656Z,9.90
2018-07-22T19:58:24.331Z,9.10
2018-07-22T20:00:52.842Z,9.43
2018-07-22T20:03:22.212Z,10.30
2018-07-22T20:05:50.703Z,10.50
2018-07-22T20:08:19.491Z,9.53
2018-07-22T20:10:48.041Z,9.77
2018-07-22T20:13:16.548Z,10.23
2018-07-22T20:15:45.160Z,10.60
2018-07-22T20:18:13.904Z,10.00
2018-07-22T20:20:42.508Z,10.40
2018-07-22T20:23:11.168Z,10.20
2018-07-22T20:25:39.707Z,9.80
2018-07-22T20:28:08.102Z,10.37
2018-07-22T20:30:36.716Z,10.00
2018-07-22T20:33:05.971Z,8.97
2018-07-22T20:35:34.498Z,9.80
2018-07-22T20:38:03.109Z,10.10
2018-07-22T20:40:31.792Z,10.47
2018-07-22T20:43:00.628Z,9.10
2018-07-22T20:45:29.045Z,11.97
2018-07-22T20:47:57.463Z,10.63
2018-07-22T20:50:25.849Z,10.13
2018-07-22T20:52:54.330Z,10.07
2018-07-22T20:55:23.138Z,10.07
2018-07-22T20:57:51.513Z,10.00
2018-07-22T21:00:20.146Z,9.17
2018-07-22T21:02:49.019Z,8.90
2018-07-22T21:05:17.478Z,9.40
2018-07-22T21:07:45.866Z,9.43
2018-07-22T21:10:14.378Z,9.67
2018-07-22T21:12:52.650Z,9.63
2018-07-22T21:15:21.378Z,10.10
2018-07-22T21:17:50.703Z,9.60
2018-07-22T21:20:20.013Z,10.00
2018-07-22T21:22:48.483Z,9.43
2018-07-22T21:25:17.397Z,11.03
2018-07-22T21:27:46.056Z,10.70
2018-07-22T21:30:14.857Z,10.87
2018-07-22T21:32:43.459Z,12.00
2018-07-22T21:35:11.800Z,11.53
2018-07-22T21:37:40.335Z,11.90
2018-07-22T21:40:08.731Z,12.73
2018-07-22T21:42:37.134Z,12.93
2018-07-22T21:45:06.435Z,13.03
2018-07-22T21:47:35.286Z,13.40
2018-07-22T21:50:04.265Z,13.37
2018-07-22T21:52:32.676Z,12.23
2018-07-22T21:55:01.229Z,11.87
2018-07-22T21:57:29.563Z,12.77
2018-07-22T21:59:57.896Z,13.87
2018-07-22T22:02:30.465Z,12.03
2018-07-22T22:04:59.094Z,11.87
2018-07-22T22:07:27.584Z,13.03
2018-07-22T22:09:55.947Z,13.37
2018-07-22T22:12:24.482Z,14.40
2018-07-22T22:14:53.248Z,14.70
2018-07-22T22:17:22.013Z,13.20
2018-07-22T22:19:50.504Z,14.10
2018-07-22T22:22:18.928Z,14.73
2018-07-22T22:24:47.687Z,13.37
2018-07-22T22:27:16.051Z,18.10
2018-07-22T22:29:45.266Z,22.87
2018-07-22T22:32:13.637Z,20.30
2018-07-22T22:34:42.074Z,17.80
2018-07-22T22:37:10.579Z,16.87
2018-07-22T22:39:39.030Z,13.60
2018-07-22T22:42:07.395Z,12.37
2018-07-22T22:44:35.971Z,14.97
2018-07-22T22:47:04.546Z,15.00
2018-07-22T22:49:33.000Z,14.83
2018-07-22T22:52:01.468Z,14.50
2018-07-22T22:54:29.835Z,16.97
2018-07-22T22:56:59.000Z,15.40
2018-07-22T22:59:27.379Z,16.77
2018-07-22T23:01:55.911Z,15.20
2018-07-22T23:04:24.327Z,16.97
2018-07-22T23:06:52.895Z,17.43
2018-07-22T23:09:21.356Z,17.73
2018-07-22T23:11:49.729Z,17.20
2018-07-22T23:14:18.421Z,17.40
2018-07-22T23:16:46.885Z,16.43
2018-07-22T23:19:15.256Z,17.23
2018-07-22T23:21:43.582Z,17.10
2018-07-22T23:24:12.243Z,18.27
2018-07-22T23:26:40.710Z,17.53
2018-07-22T23:29:09.161Z,16.40
2018-07-22T23:31:37.636Z,15.70
2018-07-22T23:34:07.044Z,15.67
2018-07-22T23:36:35.648Z,15.77
2018-07-22T23:39:06.115Z,14.90
2018-07-22T23:41:34.556Z,15.50
2018-07-22T23:44:02.979Z,16.27
2018-07-22T23:46:31.728Z,16.17
2018-07-22T23:49:00.210Z,18.00
2018-07-22T23:51:28.584Z,17.30
2018-07-22T23:53:56.906Z,16.10
2018-07-22T23:56:25.355Z,16.30
2018-07-22T23:58:54.389Z,16.37
